createdAt,value
2024-03-11T00:00:55.535Z,8.66
2024-03-11T00:01:55.465Z,8.63
2024-03-11T00:02:55.498Z,8.63
2024-03-11T00:03:55.481Z,8.62
2024-03-11T00:04:55.438Z,8.60
2024-03-11T00:05:55.452Z,8.57
2024-03-11T00:06:55.401Z,8.55
2024-03-11T00:07:55.393Z,8.54
2024-03-11T00:08:55.399Z,8.55
2024-03-11T00:09:55.365Z,8.51
2024-03-11T00:10:55.429Z,8.50
2024-03-11T00:11:55.471Z,8.48
2024-03-11T00:12:55.338Z,8.48
2024-03-11T00:13:55.328Z,8.48
2024-03-11T00:14:55.326Z,8.48
2024-03-11T00:15:55.325Z,8.47
2024-03-11T00:16:55.298Z,8.47
2024-03-11T00:17:55.557Z,8.47
2024-03-11T00:18:55.277Z,8.45
2024-03-11T00:19:55.309Z,8.47
2024-03-11T00:20:55.264Z,8.47
2024-03-11T00:21:55.261Z,8.47
2024-03-11T00:22:55.225Z,8.44
2024-03-11T00:23:55.219Z,8.44
2024-03-11T00:24:55.207Z,8.42
2024-03-11T00:25:55.204Z,8.40
2024-03-11T00:26:55.206Z,8.39
2024-03-11T00:27:55.164Z,8.37
2024-03-11T00:28:55.164Z,8.35
2024-03-11T00:29:55.140Z,8.33
2024-03-11T00:30:55.178Z,8.32
2024-03-11T00:31:55.136Z,8.29
2024-03-11T00:32:55.183Z,8.29
2024-03-11T00:33:55.118Z,8.26
2024-03-11T00:34:55.160Z,8.25
2024-03-11T00:35:55.092Z,8.26
2024-03-11T00:36:55.118Z,8.28
2024-03-11T00:37:55.055Z,8.28
2024-03-11T00:38:55.108Z,8.30
2024-03-11T00:39:55.053Z,8.29
2024-03-11T00:40:55.024Z,8.29
2024-03-11T00:41:55.020Z,8.29
2024-03-11T00:42:55.048Z,8.30
2024-03-11T00:43:54.993Z,8.29
2024-03-11T00:44:55.008Z,8.32
2024-03-11T00:45:55.057Z,8.30
2024-03-11T00:46:54.971Z,8.30
2024-03-11T00:47:55.022Z,8.29
2024-03-11T00:48:54.982Z,8.30
2024-03-11T00:49:54.940Z,8.28
2024-03-11T00:50:54.994Z,8.28
2024-03-11T00:51:54.921Z,8.28
2024-03-11T00:52:54.896Z,8.29
2024-03-11T00:53:54.889Z,8.25
2024-03-11T00:54:54.888Z,8.26
2024-03-11T00:55:54.883Z,8.25
2024-03-11T00:56:54.903Z,8.26
2024-03-11T00:57:54.858Z,8.26
2024-03-11T00:58:54.837Z,8.25
2024-03-11T00:59:54.833Z,8.26
2024-03-11T01:00:54.864Z,8.26
2024-03-11T01:01:54.802Z,8.28
2024-03-11T01:02:54.841Z,8.29
2024-03-11T01:03:54.786Z,8.30
2024-03-11T01:04:54.789Z,8.32
2024-03-11T01:05:54.850Z,8.30
2024-03-11T01:07:04.116Z,8.32
2024-03-11T01:07:54.741Z,8.35
2024-03-11T01:08:54.746Z,8.33
2024-03-11T01:09:54.715Z,8.36
2024-03-11T01:10:54.781Z,8.36
2024-03-11T01:11:54.745Z,8.36
2024-03-11T01:12:54.671Z,8.37
2024-03-11T01:13:54.669Z,8.37
2024-03-11T01:14:54.719Z,8.39
2024-03-11T01:15:54.661Z,8.39
2024-03-11T01:16:54.663Z,8.39
2024-03-11T01:17:54.655Z,8.39
2024-03-11T01:18:54.642Z,8.40
2024-03-11T01:19:54.619Z,8.40
2024-03-11T01:20:54.634Z,8.40
2024-03-11T01:21:54.587Z,8.42
2024-03-11T01:22:54.603Z,8.40
2024-03-11T01:23:54.564Z,8.40
2024-03-11T01:24:54.553Z,8.40
2024-03-11T01:25:54.536Z,8.40
2024-03-11T01:26:54.536Z,8.40
2024-03-11T01:27:54.506Z,8.40
2024-03-11T01:28:54.550Z,8.42
2024-03-11T01:29:54.537Z,8.40
2024-03-11T01:30:54.490Z,8.40
2024-03-11T01:31:54.477Z,8.39
2024-03-11T01:32:54.617Z,8.40
2024-03-11T01:33:54.449Z,8.39
2024-03-11T01:34:54.452Z,8.37
2024-03-11T01:35:54.594Z,8.36
2024-03-11T01:36:54.431Z,8.36
2024-03-11T01:37:54.411Z,8.35
2024-03-11T01:38:54.416Z,8.33
2024-03-11T01:39:54.537Z,8.32
2024-03-11T01:40:54.381Z,8.30
2024-03-11T01:41:54.387Z,8.29
2024-03-11T01:42:54.384Z,8.28
2024-03-11T01:43:54.344Z,8.29
2024-03-11T01:44:54.408Z,8.28
2024-03-11T01:45:54.336Z,8.25
2024-03-11T01:46:54.321Z,8.22
2024-03-11T01:47:54.510Z,8.21
2024-03-11T01:48:54.322Z,8.20
2024-03-11T01:49:54.469Z,8.20
2024-03-11T01:50:54.365Z,8.20
2024-03-11T01:51:54.263Z,8.17
2024-03-11T01:52:54.250Z,8.17
2024-03-11T01:53:54.249Z,8.17
2024-03-11T01:54:54.227Z,8.18
2024-03-11T01:55:54.212Z,8.17
2024-03-11T01:56:54.266Z,8.17
2024-03-11T01:57:54.192Z,8.17
2024-03-11T01:58:54.184Z,8.15
2024-03-11T01:59:54.203Z,8.17
2024-03-11T02:00:54.195Z,8.17
2024-03-11T02:01:54.192Z,8.15
2024-03-11T02:02:54.188Z,8.17
2024-03-11T02:03:54.139Z,8.15
2024-03-11T02:04:54.298Z,8.14
2024-03-11T02:05:54.162Z,8.14
2024-03-11T02:06:54.108Z,8.14
2024-03-11T02:07:54.074Z,8.12
2024-03-11T02:08:54.126Z,8.12
2024-03-11T02:09:54.090Z,8.14
2024-03-11T02:10:54.147Z,8.12
2024-03-11T02:11:54.154Z,8.12
2024-03-11T02:12:54.055Z,8.12
2024-03-11T02:13:54.015Z,8.10
2024-03-11T02:14:54.084Z,8.11
2024-03-11T02:15:53.997Z,8.11
2024-03-11T02:16:54.014Z,8.11
2024-03-11T02:17:54.067Z,8.12
2024-03-11T02:18:53.965Z,8.12
2024-03-11T02:19:53.995Z,8.10
2024-03-11T02:20:53.997Z,8.10
2024-03-11T02:21:53.931Z,8.10
2024-03-11T02:22:54.076Z,8.08
2024-03-11T02:23:53.924Z,8.10
2024-03-11T02:24:53.939Z,8.08
2024-03-11T02:25:53.891Z,8.08
2024-03-11T02:26:53.898Z,8.08
2024-03-11T02:27:53.921Z,8.10
2024-03-11T02:28:53.854Z,8.08
2024-03-11T02:29:53.860Z,8.07
2024-03-11T02:30:53.872Z,8.08
2024-03-11T02:31:53.812Z,8.07
2024-03-11T02:32:53.948Z,8.07
2024-03-11T02:33:53.795Z,8.07
2024-03-11T02:34:53.773Z,8.08
2024-03-11T02:35:53.863Z,8.08
2024-03-11T02:36:53.758Z,8.08
2024-03-11T02:37:53.746Z,8.10
2024-03-11T02:38:53.784Z,8.10
2024-03-11T02:39:53.744Z,8.10
2024-03-11T02:40:53.713Z,8.10
2024-03-11T02:41:53.740Z,8.10
2024-03-11T02:42:53.700Z,8.08
2024-03-11T02:43:53.695Z,8.10
2024-03-11T02:44:53.680Z,8.10
2024-03-11T02:45:53.653Z,8.07
2024-03-11T02:46:53.661Z,8.08
2024-03-11T02:47:53.736Z,8.07
2024-03-11T02:48:53.648Z,8.04
2024-03-11T02:49:53.608Z,8.04
2024-03-11T02:50:53.711Z,8.02
2024-03-11T02:51:53.598Z,8.03
2024-03-11T02:52:53.586Z,8.02
2024-03-11T02:53:53.612Z,8.02
2024-03-11T02:54:53.557Z,8.02
2024-03-11T02:55:53.566Z,7.99
2024-03-11T02:56:53.552Z,7.99
2024-03-11T02:57:53.530Z,8.00
2024-03-11T02:58:53.510Z,8.00
2024-03-11T02:59:53.522Z,8.00
2024-03-11T03:00:53.502Z,7.99
2024-03-11T03:01:53.492Z,7.99
2024-03-11T03:02:53.951Z,7.97
2024-03-11T03:03:53.467Z,7.97
2024-03-11T03:04:53.460Z,7.96
2024-03-11T03:05:53.471Z,7.94
2024-03-11T03:06:53.439Z,7.94
2024-03-11T03:07:53.436Z,7.94
2024-03-11T03:08:53.463Z,7.92
2024-03-11T03:09:53.411Z,7.93
2024-03-11T03:10:53.421Z,7.92
2024-03-11T03:11:53.450Z,7.90
2024-03-11T03:12:53.357Z,7.90
2024-03-11T03:13:53.358Z,7.90
2024-03-11T03:14:53.428Z,7.92
2024-03-11T03:15:53.342Z,7.90
2024-03-11T03:16:53.320Z,7.90
2024-03-11T03:17:53.378Z,7.90
2024-03-11T03:18:53.302Z,7.93
2024-03-11T03:19:53.277Z,7.93
2024-03-11T03:20:53.382Z,7.93
2024-03-11T03:21:53.264Z,7.96
2024-03-11T03:22:53.262Z,7.96
2024-03-11T03:23:53.300Z,7.97
2024-03-11T03:24:53.244Z,7.97
2024-03-11T03:25:53.231Z,7.99
2024-03-11T03:26:53.253Z,8.02
2024-03-11T03:27:53.190Z,8.00
2024-03-11T03:28:53.194Z,7.99
2024-03-11T03:29:53.202Z,8.00
2024-03-11T03:30:53.189Z,8.00
2024-03-11T03:31:53.170Z,8.00
2024-03-11T03:32:53.216Z,8.02
2024-03-11T03:33:53.132Z,8.00
2024-03-11T03:34:53.123Z,8.00
2024-03-11T03:35:53.134Z,8.02
2024-03-11T03:36:53.105Z,8.00
2024-03-11T03:37:53.090Z,7.99
2024-03-11T03:38:53.180Z,7.99
2024-03-11T03:39:53.081Z,7.97
2024-03-11T03:40:53.060Z,7.97
2024-03-11T03:41:53.104Z,7.97
2024-03-11T03:42:53.034Z,7.97
2024-03-11T03:43:53.026Z,7.94
2024-03-11T03:44:53.083Z,7.94
2024-03-11T03:45:53.011Z,7.93
2024-03-11T03:46:52.996Z,7.92
2024-03-11T03:47:53.094Z,7.92
2024-03-11T03:48:52.997Z,7.92
2024-03-11T03:49:52.968Z,7.92
2024-03-11T03:50:53.056Z,7.90
2024-03-11T03:51:52.943Z,7.89
2024-03-11T03:52:52.928Z,7.85
2024-03-11T03:53:52.957Z,7.85
2024-03-11T03:54:52.945Z,7.85
2024-03-11T03:55:52.917Z,7.87
2024-03-11T03:56:52.907Z,7.85
2024-03-11T03:57:52.877Z,7.85
2024-03-11T03:58:52.861Z,7.85
2024-03-11T03:59:52.871Z,7.87
2024-03-11T04:00:52.851Z,7.87
2024-03-11T04:01:52.821Z,7.87
2024-03-11T04:02:52.918Z,7.89
2024-03-11T04:03:52.809Z,7.89
2024-03-11T04:04:52.795Z,7.90
2024-03-11T04:05:52.856Z,7.89
2024-03-11T04:06:52.770Z,7.90
2024-03-11T04:07:52.768Z,7.90
2024-03-11T04:08:52.811Z,7.90
2024-03-11T04:09:52.733Z,7.87
2024-03-11T04:10:52.792Z,7.90
2024-03-11T04:11:52.796Z,7.89
2024-03-11T04:12:52.702Z,7.87
2024-03-11T04:13:52.756Z,7.87
2024-03-11T04:14:52.769Z,7.87
2024-03-11T04:15:52.676Z,7.87
2024-03-11T04:16:52.698Z,7.87
2024-03-11T04:17:52.786Z,7.85
2024-03-11T04:18:52.636Z,7.85
2024-03-11T04:19:52.631Z,7.85
2024-03-11T04:20:52.666Z,7.85
2024-03-11T04:21:52.601Z,7.85
2024-03-11T04:22:52.742Z,7.84
2024-03-11T04:23:52.706Z,7.84
2024-03-11T04:24:52.573Z,7.84
2024-03-11T04:25:52.560Z,7.85
2024-03-11T04:26:52.596Z,7.85
2024-03-11T04:27:52.541Z,7.87
2024-03-11T04:28:52.516Z,7.87
2024-03-11T04:29:52.548Z,7.89
2024-03-11T04:30:52.510Z,7.89
2024-03-11T04:31:52.501Z,7.89
2024-03-11T04:32:52.990Z,7.92
2024-03-11T04:33:52.480Z,7.90
2024-03-11T04:34:52.495Z,7.92
2024-03-11T04:35:52.569Z,7.92
2024-03-11T04:36:52.466Z,7.93
2024-03-11T04:37:52.443Z,7.92
2024-03-11T04:38:52.507Z,7.94
2024-03-11T04:39:52.441Z,7.93
2024-03-11T04:40:52.413Z,7.96
2024-03-11T04:41:52.471Z,7.96
2024-03-11T04:42:52.377Z,7.96
2024-03-11T04:43:52.361Z,7.99
2024-03-11T04:44:52.419Z,7.99
2024-03-11T04:45:52.365Z,7.99
2024-03-11T04:46:52.356Z,7.99
2024-03-11T04:47:52.657Z,8.02
2024-03-11T04:48:52.308Z,8.00
2024-03-11T04:49:52.323Z,8.00
2024-03-11T04:50:52.360Z,8.02
2024-03-11T04:51:52.277Z,8.02
2024-03-11T04:52:52.273Z,8.02
2024-03-11T04:53:52.316Z,8.04
2024-03-11T04:54:52.244Z,8.07
2024-03-11T04:55:52.234Z,8.08
2024-03-11T04:56:52.313Z,8.07
2024-03-11T04:57:52.213Z,8.08
2024-03-11T04:58:52.209Z,8.08
2024-03-11T04:59:52.203Z,8.08
2024-03-11T05:00:52.211Z,8.10
2024-03-11T05:01:52.167Z,8.08
2024-03-11T05:02:52.229Z,8.08
2024-03-11T05:03:52.145Z,8.10
2024-03-11T05:04:52.148Z,8.08
2024-03-11T05:05:52.170Z,8.07
2024-03-11T05:06:52.114Z,8.08
2024-03-11T05:07:52.145Z,8.07
2024-03-11T05:08:52.217Z,8.10
2024-03-11T05:09:52.096Z,8.11
2024-03-11T05:10:52.108Z,8.11
2024-03-11T05:11:52.121Z,8.11
2024-03-11T05:12:52.104Z,8.12
2024-03-11T05:13:52.092Z,8.14
2024-03-11T05:14:52.125Z,8.14
2024-03-11T05:15:52.027Z,8.14
2024-03-11T05:16:52.031Z,8.14
2024-03-11T05:17:52.335Z,8.12
2024-03-11T05:18:51.982Z,8.14
2024-03-11T05:19:51.965Z,8.14
2024-03-11T05:20:52.097Z,8.14
2024-03-11T05:21:51.960Z,8.15
2024-03-11T05:22:51.972Z,8.17
2024-03-11T05:23:51.967Z,8.15
2024-03-11T05:24:51.920Z,8.15
2024-03-11T05:25:51.914Z,8.15
2024-03-11T05:26:51.955Z,8.17
2024-03-11T05:27:52.062Z,8.17
2024-03-11T05:28:51.879Z,8.17
2024-03-11T05:29:51.907Z,8.18
2024-03-11T05:30:51.854Z,8.17
2024-03-11T05:31:51.836Z,8.17
2024-03-11T05:32:51.948Z,8.18
2024-03-11T05:33:51.819Z,8.17
2024-03-11T05:34:51.825Z,8.17
2024-03-11T05:35:51.863Z,8.18
2024-03-11T05:36:51.791Z,8.17
2024-03-11T05:37:51.785Z,8.18
2024-03-11T05:38:51.817Z,8.18
2024-03-11T05:39:51.759Z,8.18
2024-03-11T05:40:51.745Z,8.18
2024-03-11T05:41:51.761Z,8.18
2024-03-11T05:42:51.729Z,8.17
2024-03-11T05:43:51.705Z,8.20
2024-03-11T05:44:51.785Z,8.18
2024-03-11T05:45:51.691Z,8.20
2024-03-11T05:46:51.674Z,8.20
2024-03-11T05:47:51.839Z,8.18
2024-03-11T05:48:51.693Z,8.20
2024-03-11T05:49:51.655Z,8.18
2024-03-11T05:50:51.737Z,8.18
2024-03-11T05:51:51.631Z,8.18
2024-03-11T05:52:51.630Z,8.17
2024-03-11T05:53:51.666Z,8.17
2024-03-11T05:54:51.628Z,8.18
2024-03-11T05:55:51.596Z,8.20
2024-03-11T05:56:51.632Z,8.20
2024-03-11T05:57:51.572Z,8.20
2024-03-11T05:58:51.553Z,8.20
2024-03-11T05:59:51.567Z,8.20
2024-03-11T06:00:51.548Z,8.20
2024-03-11T06:01:51.518Z,8.20
2024-03-11T06:02:51.680Z,8.20
2024-03-11T06:03:51.494Z,8.20
2024-03-11T06:04:51.520Z,8.20
2024-03-11T06:05:51.563Z,8.20
2024-03-11T06:06:51.473Z,8.18
2024-03-11T06:07:51.460Z,8.18
2024-03-11T06:08:51.496Z,8.18
2024-03-11T06:09:51.421Z,8.20
2024-03-11T06:10:51.439Z,8.20
2024-03-11T06:11:51.549Z,8.21
2024-03-11T06:12:51.412Z,8.22
2024-03-11T06:13:51.375Z,8.22
2024-03-11T06:14:51.488Z,8.25
2024-03-11T06:15:51.367Z,8.22
2024-03-11T06:16:51.357Z,8.22
2024-03-11T06:17:51.444Z,8.21
2024-03-11T06:18:51.352Z,8.25
2024-03-11T06:19:51.326Z,8.26
2024-03-11T06:20:51.538Z,8.25
2024-03-11T06:21:51.297Z,8.26
2024-03-11T06:22:51.320Z,8.28
2024-03-11T06:23:51.307Z,8.28
2024-03-11T06:24:51.268Z,8.28
2024-03-11T06:25:51.282Z,8.29
2024-03-11T06:26:51.316Z,8.29
2024-03-11T06:27:51.244Z,8.29
2024-03-11T06:28:51.229Z,8.28
2024-03-11T06:29:51.317Z,8.28
2024-03-11T06:30:51.197Z,8.28
2024-03-11T06:31:51.243Z,8.28
2024-03-11T06:32:51.337Z,8.28
2024-03-11T06:33:51.194Z,8.29
2024-03-11T06:34:51.166Z,8.29
2024-03-11T06:35:51.268Z,8.29
2024-03-11T06:36:51.146Z,8.29
2024-03-11T06:37:51.118Z,8.30
2024-03-11T06:38:51.149Z,8.30
2024-03-11T06:39:51.133Z,8.29
2024-03-11T06:40:51.119Z,8.30
2024-03-11T06:41:51.134Z,8.30
2024-03-11T06:42:51.061Z,8.32
2024-03-11T06:43:51.083Z,8.32
2024-03-11T06:44:51.113Z,8.32
2024-03-11T06:45:51.044Z,8.33
2024-03-11T06:46:51.015Z,8.35
2024-03-11T06:47:51.082Z,8.37
2024-03-11T06:48:51.283Z,8.39
2024-03-11T06:49:50.993Z,8.40
2024-03-11T06:50:51.003Z,8.40
2024-03-11T06:51:50.978Z,8.40
2024-03-11T06:52:50.960Z,8.42
2024-03-11T06:53:50.943Z,8.40
2024-03-11T06:54:50.933Z,8.42
2024-03-11T06:55:50.966Z,8.42
2024-03-11T06:56:50.954Z,8.44
2024-03-11T06:57:50.896Z,8.42
2024-03-11T06:58:50.927Z,8.45
2024-03-11T06:59:50.899Z,8.44
2024-03-11T07:00:50.889Z,8.45
2024-03-11T07:01:50.869Z,8.48
2024-03-11T07:02:50.907Z,8.47
2024-03-11T07:03:50.829Z,8.47
2024-03-11T07:04:51.013Z,8.47
2024-03-11T07:05:50.829Z,8.47
2024-03-11T07:06:50.799Z,8.47
2024-03-11T07:07:50.796Z,8.50
2024-03-11T07:08:50.798Z,8.51
2024-03-11T07:09:50.773Z,8.54
2024-03-11T07:10:50.778Z,8.54
2024-03-11T07:11:50.758Z,8.54
2024-03-11T07:12:50.753Z,8.54
2024-03-11T07:13:50.719Z,8.54
2024-03-11T07:14:50.764Z,8.55
2024-03-11T07:15:50.703Z,8.57
2024-03-11T07:16:50.688Z,8.55
2024-03-11T07:17:50.720Z,8.60
2024-03-11T07:18:50.705Z,8.58
2024-03-11T07:19:50.671Z,8.62
2024-03-11T07:20:50.680Z,8.62
2024-03-11T07:21:50.633Z,8.62
2024-03-11T07:22:50.631Z,8.66
2024-03-11T07:23:50.615Z,8.68
2024-03-11T07:24:50.600Z,8.68
2024-03-11T07:25:50.655Z,8.71
2024-03-11T07:26:50.624Z,8.73
2024-03-11T07:27:50.594Z,8.78
2024-03-11T07:28:50.585Z,8.79
2024-03-11T07:29:50.560Z,8.81
2024-03-11T07:30:50.567Z,8.84
2024-03-11T07:31:50.566Z,8.88
2024-03-11T07:32:50.535Z,8.90
2024-03-11T07:33:50.500Z,8.93
2024-03-11T07:34:50.490Z,8.96
2024-03-11T07:35:50.484Z,8.97
2024-03-11T07:36:50.468Z,8.99
2024-03-11T07:37:50.515Z,9.02
2024-03-11T07:38:50.650Z,9.04
2024-03-11T07:39:50.435Z,9.05
2024-03-11T07:40:50.425Z,9.12
2024-03-11T07:41:50.419Z,9.13
2024-03-11T07:42:50.424Z,9.13
2024-03-11T07:43:50.402Z,9.15
2024-03-11T07:44:50.451Z,9.18
2024-03-11T07:45:50.386Z,9.18
2024-03-11T07:46:50.370Z,9.20
2024-03-11T07:47:50.430Z,9.21
2024-03-11T07:48:50.348Z,9.21
2024-03-11T07:49:50.349Z,9.25
2024-03-11T07:50:50.407Z,9.27
2024-03-11T07:51:50.362Z,9.28
2024-03-11T07:52:50.304Z,9.28
2024-03-11T07:53:50.292Z,9.27
2024-03-11T07:54:50.287Z,9.25
2024-03-11T07:55:50.270Z,9.24
2024-03-11T07:56:50.298Z,9.23
2024-03-11T07:57:50.238Z,9.21
2024-03-11T07:58:50.270Z,9.21
2024-03-11T07:59:50.236Z,9.21
2024-03-11T08:00:50.253Z,9.21
2024-03-11T08:01:50.200Z,9.24
2024-03-11T08:02:50.206Z,9.27
2024-03-11T08:03:50.242Z,9.28
2024-03-11T08:04:51.555Z,9.30
2024-03-11T08:05:50.171Z,9.27
2024-03-11T08:06:50.158Z,9.28
2024-03-11T08:07:50.134Z,9.24
2024-03-11T08:08:50.136Z,9.25
2024-03-11T08:09:50.160Z,9.25
2024-03-11T08:10:50.098Z,9.25
2024-03-11T08:11:50.107Z,9.25
2024-03-11T08:12:50.096Z,9.25
2024-03-11T08:13:50.064Z,9.25
2024-03-11T08:14:50.074Z,9.27
2024-03-11T08:15:50.751Z,9.28
2024-03-11T08:16:50.094Z,9.32
2024-03-11T08:17:50.046Z,9.34
2024-03-11T08:18:50.036Z,9.32
2024-03-11T08:19:50.021Z,9.34
2024-03-11T08:20:50.023Z,9.34
2024-03-11T08:21:50.012Z,9.34
2024-03-11T08:22:50.193Z,9.35
2024-03-11T08:23:49.952Z,9.38
2024-03-11T08:24:49.964Z,9.38
2024-03-11T08:25:49.941Z,9.39
2024-03-11T08:26:49.979Z,9.35
2024-03-11T08:27:49.911Z,9.34
2024-03-11T08:28:49.918Z,9.32
2024-03-11T08:29:49.881Z,9.32
2024-03-11T08:30:49.887Z,9.34
2024-03-11T08:31:49.857Z,9.34
2024-03-11T08:32:49.946Z,9.34
2024-03-11T08:33:49.852Z,9.34
2024-03-11T08:34:49.839Z,9.34
2024-03-11T08:35:49.833Z,9.35
2024-03-11T08:36:49.827Z,9.38
2024-03-11T08:37:49.809Z,9.35
2024-03-11T08:38:50.686Z,9.35
2024-03-11T08:39:49.789Z,9.38
2024-03-11T08:40:49.778Z,9.38
2024-03-11T08:41:49.774Z,9.38
2024-03-11T08:42:49.752Z,9.35
2024-03-11T08:43:49.741Z,9.34
2024-03-11T08:44:49.795Z,9.35
2024-03-11T08:45:49.740Z,9.34
2024-03-11T08:46:49.758Z,9.34
2024-03-11T08:47:49.743Z,9.35
2024-03-11T08:48:49.719Z,9.35
2024-03-11T08:49:49.665Z,9.35
2024-03-11T08:50:49.719Z,9.38
2024-03-11T08:51:49.648Z,9.39
2024-03-11T08:52:49.783Z,9.39
2024-03-11T08:53:49.617Z,9.40
2024-03-11T08:54:49.619Z,9.40
2024-03-11T08:55:49.609Z,9.42
2024-03-11T08:56:49.640Z,9.45
2024-03-11T08:57:49.580Z,9.45
2024-03-11T08:58:49.581Z,9.45
2024-03-11T08:59:49.669Z,9.45
2024-03-11T09:00:49.585Z,9.46
2024-03-11T09:01:49.562Z,9.46
2024-03-11T09:02:49.548Z,9.45
2024-03-11T09:03:49.567Z,9.46
2024-03-11T09:04:49.506Z,9.48
2024-03-11T09:05:49.517Z,9.50
2024-03-11T09:06:49.537Z,9.50
2024-03-11T09:07:49.491Z,9.52
2024-03-11T09:08:52.718Z,9.56
2024-03-11T09:09:49.526Z,9.56
2024-03-11T09:10:49.430Z,9.58
2024-03-11T09:11:49.516Z,9.61
2024-03-11T09:12:49.476Z,9.63
2024-03-11T09:13:49.406Z,9.64
2024-03-11T09:14:49.433Z,9.67
2024-03-11T09:15:49.401Z,9.68
2024-03-11T09:16:49.366Z,9.68
2024-03-11T09:17:49.416Z,9.71
2024-03-11T09:18:49.384Z,9.73
2024-03-11T09:19:49.342Z,9.73
2024-03-11T09:20:49.355Z,9.76
2024-03-11T09:21:49.396Z,9.78
2024-03-11T09:22:49.336Z,9.81
2024-03-11T09:23:49.294Z,9.83
2024-03-11T09:24:49.304Z,9.85
2024-03-11T09:25:49.271Z,9.86
2024-03-11T09:26:49.289Z,9.88
2024-03-11T09:27:49.364Z,9.89
2024-03-11T09:28:49.245Z,9.93
2024-03-11T09:29:49.247Z,9.93
2024-03-11T09:30:49.301Z,9.94
2024-03-11T09:31:49.226Z,9.93
2024-03-11T09:32:49.248Z,9.93
2024-03-11T09:33:49.286Z,9.94
2024-03-11T09:34:49.182Z,9.91
2024-03-11T09:35:49.180Z,9.93
2024-03-11T09:36:49.293Z,9.94
2024-03-11T09:37:49.149Z,9.94
2024-03-11T09:38:49.166Z,9.94
2024-03-11T09:39:49.139Z,9.94
2024-03-11T09:40:49.167Z,9.96
2024-03-11T09:41:49.117Z,9.94
2024-03-11T09:42:49.527Z,9.97
2024-03-11T09:43:49.142Z,10.00
2024-03-11T09:44:49.077Z,9.99
2024-03-11T09:45:49.079Z,10.03
2024-03-11T09:46:49.047Z,10.06
2024-03-11T09:47:49.073Z,10.06
2024-03-11T09:48:49.057Z,10.03
2024-03-11T09:49:49.006Z,10.04
2024-03-11T09:50:49.027Z,10.04
2024-03-11T09:51:49.440Z,10.04
2024-03-11T09:52:49.011Z,10.04
2024-03-11T09:53:48.963Z,10.06
2024-03-11T09:54:49.008Z,10.04
2024-03-11T09:55:48.962Z,10.04
2024-03-11T09:56:49.000Z,10.04
2024-03-11T09:57:49.013Z,10.06
2024-03-11T09:58:48.925Z,10.06
2024-03-11T09:59:48.951Z,10.07
2024-03-11T10:00:49.027Z,10.09
2024-03-11T10:01:48.979Z,10.07
2024-03-11T10:02:48.906Z,10.09
2024-03-11T10:03:49.120Z,10.10
2024-03-11T10:04:48.862Z,10.12
2024-03-11T10:05:48.839Z,10.12
2024-03-11T10:06:48.926Z,10.12
2024-03-11T10:07:48.831Z,10.12
2024-03-11T10:08:48.838Z,10.12
2024-03-11T10:09:48.944Z,10.10
2024-03-11T10:10:48.854Z,10.10
2024-03-11T10:11:48.769Z,10.10
2024-03-11T10:12:48.868Z,10.10
2024-03-11T10:13:48.773Z,10.10
2024-03-11T10:14:48.771Z,10.07
2024-03-11T10:15:48.795Z,10.07
2024-03-11T10:16:48.738Z,10.07
2024-03-11T10:17:48.772Z,10.04
2024-03-11T10:18:48.715Z,10.03
2024-03-11T10:19:48.705Z,10.06
2024-03-11T10:20:48.724Z,10.07
2024-03-11T10:21:48.679Z,10.09
2024-03-11T10:22:48.802Z,10.06
2024-03-11T10:23:48.653Z,10.07
2024-03-11T10:24:50.030Z,10.07
2024-03-11T10:25:48.627Z,10.07
2024-03-11T10:26:48.652Z,10.09
2024-03-11T10:27:48.692Z,10.09
2024-03-11T10:28:48.594Z,10.09
2024-03-11T10:29:48.595Z,10.10
2024-03-11T10:30:48.666Z,10.12
2024-03-11T10:31:48.555Z,10.12
2024-03-11T10:32:48.607Z,10.15
2024-03-11T10:33:48.544Z,10.15
2024-03-11T10:34:48.545Z,10.18
2024-03-11T10:35:48.516Z,10.19
2024-03-11T10:36:51.284Z,10.21
2024-03-11T10:37:48.491Z,10.22
2024-03-11T10:38:48.513Z,10.24
2024-03-11T10:39:48.560Z,10.24
2024-03-11T10:40:48.457Z,10.24
2024-03-11T10:41:48.448Z,10.25
2024-03-11T10:42:48.511Z,10.26
2024-03-11T10:43:48.426Z,10.25
2024-03-11T10:44:48.432Z,10.25
2024-03-11T10:45:48.449Z,10.24
2024-03-11T10:46:48.450Z,10.24
2024-03-11T10:47:48.512Z,10.24
2024-03-11T10:48:48.521Z,10.24
2024-03-11T10:49:49.440Z,10.21
2024-03-11T10:50:48.426Z,10.21
2024-03-11T10:51:48.410Z,10.19
2024-03-11T10:52:48.366Z,10.17
2024-03-11T10:53:48.369Z,10.15
2024-03-11T10:54:58.211Z,10.17
2024-03-11T10:55:48.300Z,10.15
2024-03-11T10:56:49.834Z,10.15
2024-03-11T10:57:48.332Z,10.15
2024-03-11T10:58:48.300Z,10.15
2024-03-11T10:59:48.324Z,10.12
2024-03-11T11:00:48.380Z,10.14
2024-03-11T11:01:48.276Z,10.14
2024-03-11T11:02:48.289Z,10.15
2024-03-11T11:03:48.283Z,10.17
2024-03-11T11:04:48.248Z,10.18
2024-03-11T11:05:48.256Z,10.21
2024-03-11T11:06:48.259Z,10.22
2024-03-11T11:07:48.176Z,10.25
2024-03-11T11:08:48.228Z,10.25
2024-03-11T11:09:48.270Z,10.28
2024-03-11T11:10:48.287Z,10.32
2024-03-11T11:11:48.164Z,10.36
2024-03-11T11:12:48.222Z,10.34
2024-03-11T11:13:48.135Z,10.36
2024-03-11T11:14:48.127Z,10.37
2024-03-11T11:15:48.147Z,10.36
2024-03-11T11:16:48.090Z,10.36
2024-03-11T11:17:48.178Z,10.36
2024-03-11T11:18:48.098Z,10.34
2024-03-11T11:19:48.069Z,10.33
2024-03-11T11:20:48.060Z,10.28
2024-03-11T11:21:48.092Z,10.24
2024-03-11T11:22:48.022Z,10.21
2024-03-11T11:23:48.076Z,10.18
2024-03-11T11:24:48.093Z,10.18
2024-03-11T11:25:48.047Z,10.18
2024-03-11T11:26:48.013Z,10.14
2024-03-11T11:27:47.987Z,10.12
2024-03-11T11:28:47.960Z,10.14
2024-03-11T11:29:48.551Z,10.15
2024-03-11T11:30:47.984Z,10.17
2024-03-11T11:31:47.955Z,10.18
2024-03-11T11:32:47.963Z,10.17
2024-03-11T11:33:47.977Z,10.21
2024-03-11T11:34:47.953Z,10.25
2024-03-11T11:35:47.875Z,10.26
2024-03-11T11:36:47.912Z,10.30
2024-03-11T11:37:47.860Z,10.33
2024-03-11T11:38:47.854Z,10.33
2024-03-11T11:39:47.866Z,10.39
2024-03-11T11:40:47.835Z,10.40
2024-03-11T11:41:48.557Z,10.47
2024-03-11T11:42:47.828Z,10.56
2024-03-11T11:43:47.786Z,10.63
2024-03-11T11:44:47.803Z,10.70
2024-03-11T11:45:47.807Z,10.76
2024-03-11T11:46:47.778Z,10.80
2024-03-11T11:47:47.788Z,10.84
2024-03-11T11:48:47.792Z,10.86
2024-03-11T11:49:47.720Z,10.89
2024-03-11T11:50:47.723Z,10.92
2024-03-11T11:51:47.852Z,10.96
2024-03-11T11:52:48.524Z,10.99
2024-03-11T11:53:54.477Z,11.03
2024-03-11T11:54:47.789Z,11.02
2024-03-11T11:55:47.653Z,11.03
2024-03-11T11:56:47.673Z,10.98
2024-03-11T11:57:47.672Z,10.96
2024-03-11T11:58:47.633Z,10.99
2024-03-11T11:59:47.601Z,10.99
2024-03-11T12:00:47.641Z,10.95
2024-03-11T12:01:47.642Z,10.95
2024-03-11T12:02:47.634Z,10.95
2024-03-11T12:03:47.643Z,10.95
2024-03-11T12:04:47.563Z,10.98
2024-03-11T12:05:47.547Z,10.98
2024-03-11T12:06:47.565Z,10.95
2024-03-11T12:07:47.577Z,10.96
2024-03-11T12:08:47.527Z,10.99
2024-03-11T12:09:47.507Z,11.02
2024-03-11T12:10:47.493Z,11.02
2024-03-11T12:11:47.490Z,11.03
2024-03-11T12:12:47.526Z,11.02
2024-03-11T12:13:47.481Z,11.06
2024-03-11T12:14:47.500Z,11.11
2024-03-11T12:15:47.479Z,11.20
2024-03-11T12:16:47.466Z,11.25
2024-03-11T12:17:47.464Z,11.28
2024-03-11T12:18:47.435Z,11.32
2024-03-11T12:19:47.385Z,11.29
2024-03-11T12:20:47.418Z,11.34
2024-03-11T12:21:47.430Z,11.39
2024-03-11T12:22:47.357Z,11.46
2024-03-11T12:23:47.357Z,11.53
2024-03-11T12:24:47.412Z,11.57
2024-03-11T12:25:47.344Z,11.56
2024-03-11T12:26:47.346Z,11.54
2024-03-11T12:27:47.338Z,11.53
2024-03-11T12:28:47.289Z,11.53
2024-03-11T12:29:47.285Z,11.57
2024-03-11T12:30:47.326Z,11.62
2024-03-11T12:31:47.245Z,11.65
2024-03-11T12:32:47.388Z,11.72
2024-03-11T12:33:47.280Z,11.82
2024-03-11T12:34:47.223Z,11.90
2024-03-11T12:35:47.221Z,12.02
2024-03-11T12:36:47.256Z,12.13
2024-03-11T12:37:47.193Z,12.16
2024-03-11T12:38:47.233Z,12.23
2024-03-11T12:39:47.205Z,12.29
2024-03-11T12:40:47.175Z,12.31
2024-03-11T12:41:47.163Z,12.41
2024-03-11T12:42:47.208Z,12.49
2024-03-11T12:43:47.144Z,12.46
2024-03-11T12:44:47.133Z,12.39
2024-03-11T12:45:47.155Z,12.37
2024-03-11T12:46:47.141Z,12.31
2024-03-11T12:47:47.099Z,12.26
2024-03-11T12:48:47.094Z,12.29
2024-03-11T12:49:47.078Z,12.34
2024-03-11T12:50:47.109Z,12.41
2024-03-11T12:51:47.070Z,12.44
2024-03-11T12:52:47.039Z,12.37
2024-03-11T12:53:47.021Z,12.30
2024-03-11T12:54:47.039Z,12.29
2024-03-11T12:55:46.987Z,12.27
2024-03-11T12:56:47.001Z,12.23
2024-03-11T12:57:47.043Z,12.23
2024-03-11T12:58:46.964Z,12.21
2024-03-11T12:59:46.996Z,12.26
2024-03-11T13:00:47.331Z,12.29
2024-03-11T13:01:46.981Z,12.31
2024-03-11T13:02:46.941Z,12.34
2024-03-11T13:03:47.243Z,12.34
2024-03-11T13:04:46.902Z,12.33
2024-03-11T13:05:46.896Z,12.37
2024-03-11T13:06:46.923Z,12.33
2024-03-11T13:07:46.894Z,12.24
2024-03-11T13:08:46.861Z,12.20
2024-03-11T13:09:46.944Z,12.19
2024-03-11T13:10:46.858Z,12.19
2024-03-11T13:11:46.819Z,12.20